Time;durP1;ratioP1;P1;durP2;ratioP2;P2;SDS_P1;SDS_P2;PMS_P1;PMS_P2;Temp;Humidity;BMP_temperature;BMP_pressure;BME280_temperature;BME280_humidity;BME280_pressure;Samples;Min_cycle;Max_cycle;Signal;HPM_P1;HPM_P2
2021/10/19 00:00:24;;;;;;;19.43;14.27;;;13.10;99.90;;;;;;5026293;28;20746;-41
2021/10/19 00:02:51;;;;;;;17.47;13.50;;;13.10;99.90;;;;;;5025575;28;20197;-40
2021/10/19 00:05:17;;;;;;;16.93;13.90;;;13.10;99.90;;;;;;5026203;28;20429;-40
2021/10/19 00:07:43;;;;;;;18.77;13.40;;;13.10;99.90;;;;;;5026699;28;20440;-42
2021/10/19 00:10:11;;;;;;;17.10;13.87;;;13.10;99.90;;;;;;5026636;28;20424;-40
2021/10/19 00:12:39;;;;;;;16.57;13.50;;;13.00;99.90;;;;;;5015584;28;20601;-40
2021/10/19 00:15:08;;;;;;;17.53;13.60;;;13.00;99.90;;;;;;5023806;28;20787;-41
2021/10/19 00:17:34;;;;;;;17.60;13.97;;;13.00;99.90;;;;;;5026122;28;20413;-40
2021/10/19 00:20:00;;;;;;;17.77;13.67;;;13.10;99.90;;;;;;5026501;28;20709;-42
2021/10/19 00:22:26;;;;;;;14.60;12.63;;;13.10;99.90;;;;;;5035852;28;20481;-40
2021/10/19 00:24:51;;;;;;;16.83;13.90;;;13.10;99.90;;;;;;5045577;28;20204;-40
2021/10/19 00:27:17;;;;;;;16.83;13.60;;;13.10;99.90;;;;;;5021189;28;20179;-40
2021/10/19 00:29:42;;;;;;;16.63;13.93;;;13.10;99.90;;;;;;5025636;28;20191;-41
2021/10/19 00:32:08;;;;;;;14.47;12.33;;;13.10;99.90;;;;;;5025802;28;20194;-40
2021/10/19 00:34:34;;;;;;;16.67;13.27;;;13.10;99.90;;;;;;5025242;28;20222;-40
2021/10/19 00:37:00;;;;;;;16.97;14.00;;;13.10;99.90;;;;;;5025953;28;20187;-40
2021/10/19 00:39:26;;;;;;;14.60;13.10;;;13.10;99.90;;;;;;5026187;28;20432;-43
2021/10/19 00:41:51;;;;;;;16.83;14.10;;;13.20;99.90;;;;;;5016852;28;20654;-40
2021/10/19 00:44:17;;;;;;;15.63;12.73;;;13.20;99.90;;;;;;5022201;28;20265;-41
2021/10/19 00:46:44;;;;;;;14.63;12.33;;;13.20;99.90;;;;;;5025815;28;20210;-40
2021/10/19 00:49:10;;;;;;;16.10;11.73;;;13.20;99.90;;;;;;5024356;28;20697;-40
2021/10/19 00:51:36;;;;;;;14.47;12.73;;;13.20;99.90;;;;;;5025817;28;20425;-40
2021/10/19 00:54:03;;;;;;;16.43;13.60;;;13.20;99.90;;;;;;5024828;28;20564;-40
2021/10/19 00:56:29;;;;;;;14.87;12.40;;;13.20;99.90;;;;;;5022490;28;20947;-40
2021/10/19 00:58:55;;;;;;;15.07;11.80;;;13.20;99.90;;;;;;5020119;28;20457;-40
2021/10/19 01:01:20;;;;;;;14.37;12.17;;;13.20;99.90;;;;;;5025521;28;20421;-44
2021/10/19 01:03:46;;;;;;;17.33;14.13;;;13.20;99.90;;;;;;5024659;28;20305;-41
2021/10/19 01:06:13;;;;;;;15.47;12.00;;;13.20;99.90;;;;;;5025535;28;20492;-41
2021/10/19 01:08:41;;;;;;;16.37;13.53;;;13.20;99.90;;;;;;5025783;28;20261;-40
2021/10/19 01:11:07;;;;;;;17.80;13.20;;;13.30;99.90;;;;;;5025737;28;20447;-40
2021/10/19 01:13:34;;;;;;;14.27;12.50;;;13.30;99.90;;;;;;5008726;28;20561;-41
2021/10/19 01:16:08;;;;;;;14.87;12.17;;;13.30;99.90;;;;;;5023905;28;20409;-41
2021/10/19 01:18:35;;;;;;;16.73;13.53;;;13.30;99.90;;;;;;5025417;28;20420;-40
2021/10/19 01:21:02;;;;;;;14.27;12.00;;;13.30;99.90;;;;;;5026016;28;20417;-40
2021/10/19 01:23:28;;;;;;;13.40;12.00;;;13.30;99.90;;;;;;5042989;28;20428;-40
2021/10/19 01:25:53;;;;;;;15.00;12.07;;;13.30;99.90;;;;;;5045494;28;20478;-42
2021/10/19 01:28:19;;;;;;;13.00;11.30;;;13.30;99.90;;;;;;5015798;28;20953;-40
2021/10/19 01:30:47;;;;;;;15.53;12.70;;;13.30;99.90;;;;;;5025246;28;20182;-42
2021/10/19 01:33:14;;;;;;;14.73;12.00;;;13.30;99.90;;;;;;5024761;28;20643;-40
2021/10/19 01:35:42;;;;;;;14.40;12.80;;;13.30;99.90;;;;;;5025614;28;21006;-40
2021/10/19 01:38:11;;;;;;;16.10;12.30;;;13.30;99.90;;;;;;5025424;28;20413;-41
2021/10/19 01:40:38;;;;;;;19.50;12.73;;;13.30;99.90;;;;;;5024981;28;20520;-42
2021/10/19 01:43:08;;;;;;;17.17;12.67;;;13.30;99.90;;;;;;5012626;28;20438;-40
2021/10/19 01:45:34;;;;;;;14.10;12.07;;;13.40;99.90;;;;;;5024711;28;20421;-41
2021/10/19 01:48:00;;;;;;;14.80;12.40;;;13.40;99.90;;;;;;5025247;28;20804;-41
2021/10/19 01:50:25;;;;;;;14.07;12.30;;;13.40;99.90;;;;;;5025214;28;20217;-40
2021/10/19 01:52:51;;;;;;;15.47;12.47;;;13.30;99.90;;;;;;5024742;28;20263;-40
2021/10/19 01:55:17;;;;;;;16.90;13.07;;;13.40;99.90;;;;;;5028223;28;20190;-41
2021/10/19 01:57:43;;;;;;;16.47;12.47;;;13.40;99.90;;;;;;5022489;28;20248;-41
2021/10/19 02:00:11;;;;;;;13.27;11.03;;;13.50;99.90;;;;;;5024725;28;20413;-40
2021/10/19 02:02:38;;;;;;;15.10;12.60;;;13.40;99.90;;;;;;5028754;28;20328;-40
2021/10/19 02:05:04;;;;;;;14.90;11.13;;;13.40;99.90;;;;;;5028178;28;20698;-40
2021/10/19 02:07:30;;;;;;;15.60;12.80;;;13.40;99.90;;;;;;5029378;28;20424;-40
2021/10/19 02:09:55;;;;;;;16.60;13.17;;;13.40;99.90;;;;;;5028592;28;20417;-40
2021/10/19 02:12:21;;;;;;;14.33;12.50;;;13.40;99.90;;;;;;5022603;28;20203;-40
2021/10/19 02:14:47;;;;;;;14.13;12.03;;;13.40;99.90;;;;;;5020856;28;20210;-40
2021/10/19 02:17:12;;;;;;;16.63;12.60;;;13.30;99.90;;;;;;5028295;28;20217;-40
2021/10/19 02:19:38;;;;;;;16.90;13.10;;;13.40;99.90;;;;;;5028279;28;20277;-40
2021/10/19 02:22:04;;;;;;;15.00;12.27;;;13.30;99.90;;;;;;5021773;28;20706;-41
2021/10/19 02:24:29;;;;;;;20.73;13.90;;;13.30;99.90;;;;;;5027532;28;20564;-40
2021/10/19 02:26:55;;;;;;;14.30;12.60;;;13.30;99.90;;;;;;5026730;28;20317;-41
2021/10/19 02:29:21;;;;;;;13.37;11.70;;;13.30;99.90;;;;;;5020299;28;20194;-40
2021/10/19 02:31:47;;;;;;;15.37;12.87;;;13.30;99.90;;;;;;5027979;28;20189;-40
2021/10/19 02:34:14;;;;;;;14.60;11.90;;;13.30;99.90;;;;;;5027535;28;20229;-40
2021/10/19 02:36:39;;;;;;;16.97;11.80;;;13.20;99.90;;;;;;5028501;28;20183;-40
2021/10/19 02:39:06;;;;;;;13.93;12.23;;;13.20;99.90;;;;;;5026445;28;21043;-40
2021/10/19 02:41:36;;;;;;;14.53;12.53;;;13.20;99.90;;;;;;5028074;28;20190;-40
2021/10/19 02:44:03;;;;;;;16.53;12.77;;;13.20;99.90;;;;;;5017557;28;20448;-41
2021/10/19 02:46:31;;;;;;;16.43;12.17;;;13.20;99.90;;;;;;5027908;28;20978;-40
2021/10/19 02:48:58;;;;;;;15.30;13.27;;;13.20;99.90;;;;;;5027755;28;20425;-40
2021/10/19 02:51:25;;;;;;;13.53;12.13;;;13.20;99.90;;;;;;5027662;28;20413;-41
2021/10/19 02:53:50;;;;;;;15.20;12.27;;;13.20;99.90;;;;;;5027148;28;20500;-42
2021/10/19 02:56:16;;;;;;;13.73;11.23;;;13.20;99.90;;;;;;5027822;28;21218;-41
2021/10/19 02:58:42;;;;;;;15.50;11.50;;;13.20;99.90;;;;;;5025375;28;20183;-42
2021/10/19 03:01:07;;;;;;;14.13;12.10;;;13.30;99.90;;;;;;5027822;28;20186;-41
2021/10/19 03:03:33;;;;;;;13.50;12.10;;;13.30;99.90;;;;;;5026734;28;20230;-40
2021/10/19 03:05:59;;;;;;;13.30;11.00;;;13.40;99.90;;;;;;5027125;28;20205;-40
2021/10/19 03:08:24;;;;;;;13.10;11.70;;;13.40;99.90;;;;;;5027466;28;20206;-41
2021/10/19 03:10:51;;;;;;;15.83;13.50;;;13.40;99.90;;;;;;5027689;28;20561;-40
2021/10/19 03:13:17;;;;;;;15.37;11.77;;;13.40;99.90;;;;;;5018767;28;20456;-40
2021/10/19 03:15:42;;;;;;;14.20;12.27;;;13.40;99.90;;;;;;5019186;28;20428;-40
2021/10/19 03:18:08;;;;;;;13.70;12.17;;;13.40;99.90;;;;;;5027214;28;20414;-41
2021/10/19 03:20:34;;;;;;;13.30;11.90;;;13.40;99.90;;;;;;5034919;28;20185;-40
2021/10/19 03:23:00;;;;;;;14.50;12.70;;;13.40;99.90;;;;;;5042789;28;20427;-45
2021/10/19 03:25:26;;;;;;;13.73;12.13;;;13.40;99.90;;;;;;5047269;28;20415;-40
2021/10/19 03:27:52;;;;;;;14.63;12.77;;;13.40;99.90;;;;;;5037135;28;20249;-40
2021/10/19 03:30:18;;;;;;;13.20;11.80;;;13.40;99.90;;;;;;5017793;28;20187;-40
2021/10/19 03:32:44;;;;;;;14.20;12.30;;;13.50;99.90;;;;;;5026447;28;20827;-40
2021/10/19 03:35:10;;;;;;;14.77;13.27;;;13.50;99.90;;;;;;5026745;28;20443;-40
2021/10/19 03:37:35;;;;;;;13.23;11.83;;;13.40;99.90;;;;;;5027929;28;20596;-40
2021/10/19 03:40:02;;;;;;;17.00;12.83;;;13.40;99.90;;;;;;5046801;28;20489;-40
2021/10/19 03:42:27;;;;;;;14.90;13.00;;;13.40;99.90;;;;;;5047116;28;20603;-40
2021/10/19 03:44:53;;;;;;;13.57;11.83;;;13.50;99.90;;;;;;5016319;28;20433;-40
2021/10/19 03:47:19;;;;;;;15.37;13.20;;;13.40;99.90;;;;;;5026956;28;20205;-40
2021/10/19 03:49:44;;;;;;;15.80;13.77;;;13.40;99.90;;;;;;5026649;28;20741;-41
2021/10/19 03:52:10;;;;;;;16.97;13.50;;;13.40;99.90;;;;;;5026618;28;20723;-41
2021/10/19 03:54:36;;;;;;;16.30;13.70;;;13.40;99.90;;;;;;5026146;28;20503;-40
2021/10/19 03:57:01;;;;;;;16.57;14.60;;;13.40;99.90;;;;;;5026565;28;20752;-40
2021/10/19 03:59:29;;;;;;;16.40;13.50;;;13.40;99.90;;;;;;5020846;28;20194;-40
2021/10/19 04:01:55;;;;;;;16.83;13.97;;;13.30;99.90;;;;;;5026219;28;20186;-40
2021/10/19 04:04:21;;;;;;;17.47;13.47;;;13.30;99.90;;;;;;5025630;28;20491;-41
2021/10/19 04:06:46;;;;;;;17.50;14.53;;;13.20;99.90;;;;;;5026478;28;20787;-40
2021/10/19 04:09:12;;;;;;;16.23;13.30;;;13.20;99.90;;;;;;5026802;28;20706;-41
2021/10/19 04:11:38;;;;;;;17.97;15.73;;;13.20;99.90;;;;;;5026264;28;20591;-40
2021/10/19 04:14:03;;;;;;;16.07;13.77;;;13.20;99.90;;;;;;5017702;28;20219;-40
2021/10/19 04:16:29;;;;;;;17.43;15.07;;;13.20;99.90;;;;;;5023055;28;20236;-42
2021/10/19 04:18:55;;;;;;;17.20;14.20;;;13.20;99.90;;;;;;5025864;28;20197;-41
2021/10/19 04:21:21;;;;;;;18.20;15.27;;;13.10;99.90;;;;;;5038291;28;20429;-41
2021/10/19 04:23:47;;;;;;;17.27;14.00;;;13.20;99.90;;;;;;5044191;28;20197;-40
2021/10/19 04:26:13;;;;;;;19.20;15.17;;;13.10;99.90;;;;;;5045547;28;20580;-40
2021/10/19 04:28:40;;;;;;;17.73;14.87;;;13.10;99.90;;;;;;5031036;28;20433;-40
2021/10/19 04:31:06;;;;;;;17.10;14.30;;;13.10;99.90;;;;;;5021391;28;20465;-40
2021/10/19 04:33:32;;;;;;;17.53;13.63;;;13.10;99.90;;;;;;5025285;28;20497;-40
2021/10/19 04:35:58;;;;;;;16.10;13.90;;;13.10;99.90;;;;;;5026174;28;20698;-40
2021/10/19 04:38:24;;;;;;;17.03;14.60;;;13.10;99.90;;;;;;5025974;28;20413;-43
2021/10/19 04:40:50;;;;;;;16.83;15.13;;;13.00;99.90;;;;;;5026154;28;20956;-41
2021/10/19 04:43:15;;;;;;;17.10;14.83;;;13.30;99.90;;;;;;5021123;28;20635;-40
2021/10/19 04:45:41;;;;;;;15.93;14.00;;;13.00;99.90;;;;;;5018657;28;20198;-40
2021/10/19 04:48:07;;;;;;;19.50;15.77;;;12.90;99.90;;;;;;5022407;28;20194;-40
2021/10/19 04:50:34;;;;;;;18.80;15.60;;;12.90;99.90;;;;;;5025179;28;20197;-42
2021/10/19 04:53:01;;;;;;;18.93;15.30;;;12.90;99.90;;;;;;5029995;28;20206;-39
2021/10/19 04:55:27;;;;;;;16.87;13.97;;;12.80;99.90;;;;;;5025648;28;20959;-41
2021/10/19 04:57:52;;;;;;;17.60;14.40;;;12.80;99.90;;;;;;5026175;28;20428;-40
2021/10/19 05:00:18;;;;;;;17.57;14.20;;;12.90;99.90;;;;;;5015935;28;20729;-40
2021/10/19 05:02:46;;;;;;;18.00;14.93;;;12.90;99.90;;;;;;5023641;28;20813;-41
2021/10/19 05:05:15;;;;;;;18.57;13.77;;;12.90;99.90;;;;;;5025334;28;20297;-40
2021/10/19 05:07:40;;;;;;;15.80;12.33;;;12.90;99.90;;;;;;5025777;28;20413;-41
2021/10/19 05:10:07;;;;;;;15.40;12.70;;;12.90;99.90;;;;;;5025659;28;20420;-40
2021/10/19 05:12:32;;;;;;;16.63;14.33;;;13.00;99.90;;;;;;5025652;28;20420;-40
2021/10/19 05:14:58;;;;;;;14.50;12.90;;;12.90;99.90;;;;;;5014779;28;20440;-40
2021/10/19 05:17:24;;;;;;;14.93;11.57;;;13.00;99.90;;;;;;5025066;28;20584;-40
2021/10/19 05:19:50;;;;;;;14.80;12.27;;;13.00;99.90;;;;;;5025354;28;20421;-40
2021/10/19 05:22:16;;;;;;;13.93;12.43;;;13.10;99.90;;;;;;5028978;28;20234;-40
2021/10/19 05:24:42;;;;;;;12.73;11.23;;;13.10;99.90;;;;;;5033497;28;20198;-42
2021/10/19 05:27:07;;;;;;;13.80;11.67;;;13.10;99.90;;;;;;5034479;28;20462;-40
2021/10/19 05:29:33;;;;;;;12.53;11.10;;;13.10;99.90;;;;;;5029186;28;20204;-40
2021/10/19 05:31:59;;;;;;;13.50;11.47;;;13.10;99.90;;;;;;5028882;28;20195;-40
2021/10/19 05:34:25;;;;;;;13.00;10.77;;;13.10;99.90;;;;;;5028433;28;20250;-40
2021/10/19 05:36:51;;;;;;;13.20;11.40;;;13.10;99.90;;;;;;5029427;28;20568;-42
2021/10/19 05:39:18;;;;;;;11.60;10.40;;;13.20;99.90;;;;;;5028748;28;20508;-40
2021/10/19 05:41:44;;;;;;;10.87;9.60;;;13.20;99.90;;;;;;5029172;28;20191;-40
2021/10/19 05:44:10;;;;;;;11.70;10.57;;;13.20;99.90;;;;;;5013508;28;20542;-40
2021/10/19 05:46:36;;;;;;;11.10;10.00;;;13.20;99.90;;;;;;5021958;28;20580;-43
2021/10/19 05:49:02;;;;;;;11.60;10.23;;;13.20;99.90;;;;;;5027710;28;20460;-40
2021/10/19 05:51:28;;;;;;;11.93;10.60;;;13.30;99.90;;;;;;5028907;28;20433;-40
2021/10/19 05:53:54;;;;;;;12.43;9.80;;;13.30;99.90;;;;;;5027988;28;20469;-39
2021/10/19 05:56:19;;;;;;;10.13;9.03;;;13.30;99.90;;;;;;5028686;28;20425;-40
2021/10/19 05:58:45;;;;;;;11.17;9.90;;;13.30;99.90;;;;;;5025545;28;20194;-40
2021/10/19 06:01:10;;;;;;;8.83;8.03;;;13.30;99.90;;;;;;5018040;28;20186;-41
2021/10/19 06:03:36;;;;;;;10.10;9.10;;;13.30;99.90;;;;;;5026144;28;20194;-41
2021/10/19 06:06:07;;;;;;;9.20;7.93;;;13.30;99.90;;;;;;5028777;28;20198;-40
2021/10/19 06:08:33;;;;;;;10.17;8.33;;;13.30;99.90;;;;;;5028768;28;20201;-40
2021/10/19 06:10:59;;;;;;;8.93;7.87;;;13.40;99.90;;;;;;5028763;28;20432;-41
2021/10/19 06:13:25;;;;;;;8.17;7.37;;;13.40;99.90;;;;;;5024590;28;20619;-42
2021/10/19 06:15:55;;;;;;;10.33;8.23;;;13.40;99.90;;;;;;5021665;28;20432;-41
2021/10/19 06:18:21;;;;;;;9.23;8.20;;;13.40;99.90;;;;;;5028516;28;20421;-39
2021/10/19 06:20:49;;;;;;;8.23;7.43;;;13.40;99.90;;;;;;5028642;28;20456;-40
2021/10/19 06:23:15;;;;;;;8.97;8.10;;;13.40;99.90;;;;;;5031155;28;20447;-42
2021/10/19 06:25:41;;;;;;;8.57;7.60;;;13.50;99.90;;;;;;5046779;28;20428;-41
2021/10/19 06:28:07;;;;;;;8.07;7.30;;;13.50;99.90;;;;;;5024940;28;20540;-40
2021/10/19 06:30:33;;;;;;;8.40;7.60;;;13.50;99.90;;;;;;5023536;28;20269;-41
2021/10/19 06:32:59;;;;;;;8.07;7.27;;;13.50;99.90;;;;;;5026342;28;20483;-40
2021/10/19 06:35:25;;;;;;;6.70;6.10;;;13.50;99.90;;;;;;5028520;28;20418;-40
2021/10/19 06:37:50;;;;;;;7.40;6.70;;;13.50;99.90;;;;;;5027719;28;20694;-40
2021/10/19 06:40:16;;;;;;;6.30;5.70;;;13.50;99.90;;;;;;5027657;28;20252;-40
2021/10/19 06:42:42;;;;;;;6.07;5.27;;;13.60;99.90;;;;;;5027515;28;20194;-40
2021/10/19 06:45:09;;;;;;;6.33;5.67;;;13.60;99.90;;;;;;5015194;28;20215;-40
2021/10/19 06:47:35;;;;;;;5.80;5.10;;;13.60;99.90;;;;;;5028394;28;20189;-40
2021/10/19 06:50:01;;;;;;;6.67;5.83;;;13.60;99.90;;;;;;5029364;28;20421;-40
2021/10/19 06:52:29;;;;;;;5.50;5.07;;;13.60;99.90;;;;;;5027829;28;20189;-41
2021/10/19 06:54:55;;;;;;;5.37;4.87;;;13.60;99.90;;;;;;5028644;28;20461;-41
2021/10/19 06:57:20;;;;;;;5.30;4.80;;;13.60;99.90;;;;;;5029022;28;20773;-41
2021/10/19 06:59:46;;;;;;;5.13;4.70;;;13.60;99.90;;;;;;5021421;28;20453;-40
2021/10/19 07:02:12;;;;;;;5.60;5.10;;;13.60;99.90;;;;;;5029579;28;20186;-44
2021/10/19 07:04:37;;;;;;;5.07;4.57;;;13.70;99.90;;;;;;5026311;28;20240;-40
2021/10/19 07:07:03;;;;;;;5.47;4.87;;;13.70;99.90;;;;;;5029485;28;20248;-40
2021/10/19 07:09:29;;;;;;;5.10;4.60;;;13.80;99.90;;;;;;5026948;28;20652;-42
2021/10/19 07:11:57;;;;;;;4.37;4.07;;;13.80;99.90;;;;;;5027455;28;20438;-40
2021/10/19 07:14:23;;;;;;;4.50;4.10;;;13.80;99.90;;;;;;5023544;28;20690;-42
2021/10/19 07:16:49;;;;;;;4.20;3.80;;;13.80;99.90;;;;;;5021423;28;20515;-40
2021/10/19 07:19:14;;;;;;;4.80;4.40;;;13.80;99.90;;;;;;5027244;28;20704;-42
2021/10/19 07:21:40;;;;;;;3.20;3.00;;;13.80;99.90;;;;;;5031231;28;20189;-42
2021/10/19 07:24:06;;;;;;;3.40;3.10;;;13.80;99.90;;;;;;5043162;28;20190;-40
2021/10/19 07:26:33;;;;;;;3.43;3.13;;;13.70;99.90;;;;;;5045773;28;20213;-40
2021/10/19 07:28:58;;;;;;;3.90;3.57;;;13.80;99.90;;;;;;5046578;28;20431;-41
2021/10/19 07:31:24;;;;;;;3.20;2.90;;;13.80;99.90;;;;;;5018451;28;20413;-41
2021/10/19 07:33:49;;;;;;;4.53;3.37;;;13.80;99.90;;;;;;5025017;28;20321;-41
2021/10/19 07:36:15;;;;;;;3.60;3.00;;;13.80;99.90;;;;;;5026857;28;20542;-40
2021/10/19 07:38:41;;;;;;;3.23;2.93;;;13.80;99.90;;;;;;5027503;28;20261;-40
2021/10/19 07:41:07;;;;;;;3.23;2.93;;;13.90;99.90;;;;;;5026899;28;20248;-40
2021/10/19 07:43:32;;;;;;;3.30;3.03;;;13.90;99.90;;;;;;5026386;28;20272;-40
2021/10/19 07:45:58;;;;;;;3.30;3.03;;;14.00;99.90;;;;;;5016717;28;20191;-40
2021/10/19 07:48:24;;;;;;;3.40;3.10;;;14.00;99.90;;;;;;5026685;28;20258;-40
2021/10/19 07:50:50;;;;;;;3.77;3.47;;;14.00;99.90;;;;;;5025536;28;20190;-42
2021/10/19 07:53:16;;;;;;;2.80;2.60;;;14.00;99.90;;;;;;5026128;28;20213;-40
2021/10/19 07:55:43;;;;;;;3.77;3.47;;;14.00;99.90;;;;;;5025982;28;20429;-40
2021/10/19 07:58:09;;;;;;;3.50;3.20;;;14.10;99.90;;;;;;5025714;28;20802;-41
2021/10/19 08:00:35;;;;;;;3.80;3.50;;;14.10;99.90;;;;;;5018272;28;21143;-41
2021/10/19 08:03:00;;;;;;;3.80;3.40;;;14.10;99.90;;;;;;5021160;28;20288;-40
2021/10/19 08:05:28;;;;;;;3.00;2.80;;;14.10;99.90;;;;;;5026330;28;20923;-40
2021/10/19 08:08:11;;;;;;;3.53;3.23;;;14.10;99.90;;;;;;5026971;28;20558;-40
2021/10/19 08:10:39;;;;;;;3.43;3.13;;;14.20;99.90;;;;;;5026290;28;20440;-40
2021/10/19 08:13:05;;;;;;;3.90;3.60;;;14.20;99.90;;;;;;5026316;28;20460;-43
2021/10/19 08:15:31;;;;;;;3.63;3.30;;;14.20;99.90;;;;;;5016791;28;20434;-43
2021/10/19 08:17:56;;;;;;;3.90;3.27;;;14.20;99.90;;;;;;5020649;28;20505;-41
2021/10/19 08:20:22;;;;;;;3.73;3.43;;;14.20;99.90;;;;;;5026160;28;20823;-40
2021/10/19 08:22:48;;;;;;;3.23;2.97;;;14.20;99.90;;;;;;5038596;28;20292;-40
2021/10/19 08:25:14;;;;;;;3.80;3.47;;;14.20;99.90;;;;;;5046354;28;20519;-40
2021/10/19 08:27:43;;;;;;;4.43;3.50;;;14.20;99.90;;;;;;5046148;28;20190;-39
2021/10/19 08:30:12;;;;;;;4.90;3.53;;;14.30;99.90;;;;;;5032818;28;20844;-41
2021/10/19 08:32:38;;;;;;;3.57;3.27;;;14.30;99.90;;;;;;5021382;28;20406;-40
2021/10/19 08:35:05;;;;;;;3.53;3.03;;;14.30;99.90;;;;;;5025384;28;20491;-43
2021/10/19 08:37:32;;;;;;;3.00;2.67;;;14.30;99.90;;;;;;5025749;28;20429;-40
2021/10/19 08:39:58;;;;;;;3.20;3.00;;;14.30;99.90;;;;;;5025813;28;20421;-39
2021/10/19 08:42:25;;;;;;;4.73;3.47;;;14.30;99.90;;;;;;5025842;28;20768;-40
2021/10/19 08:44:50;;;;;;;3.63;3.33;;;14.30;99.90;;;;;;5022110;28;20511;-40
2021/10/19 08:47:16;;;;;;;3.97;3.67;;;14.30;99.90;;;;;;5018211;28;20951;-42
2021/10/19 08:49:42;;;;;;;3.37;3.13;;;14.30;99.90;;;;;;5025593;28;20644;-43
2021/10/19 08:52:09;;;;;;;3.60;3.03;;;14.30;99.90;;;;;;5026014;28;20616;-42
2021/10/19 08:54:34;;;;;;;3.40;3.10;;;14.30;99.90;;;;;;5025168;28;20651;-40
2021/10/19 08:57:00;;;;;;;3.23;2.93;;;14.30;99.90;;;;;;5025806;28;20552;-39
2021/10/19 08:59:26;;;;;;;2.70;2.50;;;14.30;99.90;;;;;;5025625;28;20189;-40
2021/10/19 09:01:57;;;;;;;2.90;2.70;;;14.40;99.90;;;;;;5013060;28;20187;-40
2021/10/19 09:04:28;;;;;;;3.40;2.87;;;14.40;99.90;;;;;;5024362;28;20425;-40
2021/10/19 09:06:54;;;;;;;3.20;2.90;;;14.50;99.90;;;;;;5025758;28;20467;-40
2021/10/19 09:09:24;;;;;;;3.63;3.13;;;14.50;99.90;;;;;;5025583;28;20503;-40
2021/10/19 09:11:52;;;;;;;2.93;2.40;;;14.50;99.90;;;;;;5025878;28;20604;-40
2021/10/19 09:14:19;;;;;;;3.37;3.07;;;14.60;99.90;;;;;;5024794;28;20453;-40
2021/10/19 09:16:52;;;;;;;2.50;2.30;;;14.60;99.90;;;;;;5012717;28;20547;-40
2021/10/19 09:19:19;;;;;;;2.63;2.43;;;14.60;99.90;;;;;;5025165;28;20420;-40
2021/10/19 09:22:07;;;;;;;2.90;2.70;;;14.60;99.90;;;;;;5030217;28;20427;-40
2021/10/19 09:24:37;;;;;;;3.00;2.70;;;14.60;99.90;;;;;;5034861;28;20425;-40
2021/10/19 09:27:05;;;;;;;2.57;2.37;;;14.60;99.90;;;;;;5045560;28;20421;-40
2021/10/19 09:29:36;;;;;;;2.80;2.60;;;14.60;99.90;;;;;;5045111;28;20470;-39
2021/10/19 09:32:06;;;;;;;2.63;2.43;;;14.70;99.90;;;;;;5019410;28;20425;-41
2021/10/19 09:34:34;;;;;;;2.40;2.20;;;14.70;99.90;;;;;;5024536;28;20796;-40
2021/10/19 09:37:05;;;;;;;2.77;2.57;;;14.70;99.90;;;;;;5025512;28;20758;-40
2021/10/19 09:39:41;;;;;;;2.50;2.30;;;14.70;99.90;;;;;;5023866;28;20421;-41
2021/10/19 09:42:28;;;;;;;2.87;2.57;;;14.80;99.90;;;;;;5025341;28;20427;-40
2021/10/19 09:45:02;;;;;;;2.40;2.20;;;14.80;99.90;;;;;;5024367;28;20507;-40
2021/10/19 09:47:39;;;;;;;2.00;1.90;;;14.80;99.90;;;;;;5020423;28;20443;-41
2021/10/19 09:50:09;;;;;;;2.03;1.93;;;14.80;99.90;;;;;;5025304;28;20529;-40
2021/10/19 09:52:39;;;;;;;2.30;2.20;;;14.80;99.90;;;;;;5024976;28;20434;-41
2021/10/19 09:55:13;;;;;;;1.93;1.83;;;14.80;99.90;;;;;;5024425;28;20516;-40
2021/10/19 09:57:39;;;;;;;2.50;2.30;;;14.80;99.90;;;;;;5025291;28;20655;-40
2021/10/19 10:00:09;;;;;;;2.47;2.30;;;14.80;99.90;;;;;;5022889;28;20448;-40
2021/10/19 10:02:36;;;;;;;2.33;2.13;;;14.90;99.90;;;;;;5016617;28;20559;-40
2021/10/19 10:05:04;;;;;;;2.40;2.03;;;14.90;99.90;;;;;;5024306;28;20425;-40
2021/10/19 10:07:31;;;;;;;2.07;1.90;;;14.90;99.90;;;;;;5024306;28;20425;-40
2021/10/19 10:10:02;;;;;;;2.40;2.20;;;15.00;99.90;;;;;;5025135;28;21005;-40
2021/10/19 10:12:29;;;;;;;2.30;2.10;;;15.00;99.90;;;;;;5025037;28;20420;-40
2021/10/19 10:14:55;;;;;;;2.40;2.20;;;15.00;99.90;;;;;;5024959;28;20504;-40
2021/10/19 10:17:21;;;;;;;1.90;1.80;;;15.00;99.90;;;;;;5016894;28;20616;-42
2021/10/19 10:19:47;;;;;;;2.10;1.90;;;15.10;99.90;;;;;;5029627;28;20466;-41
2021/10/19 10:22:17;;;;;;;2.17;1.80;;;15.00;99.90;;;;;;5036316;28;20420;-43
2021/10/19 10:24:43;;;;;;;2.00;1.90;;;15.10;99.90;;;;;;5043955;28;20194;-43
2021/10/19 10:27:24;;;;;;;2.23;1.73;;;15.10;99.90;;;;;;5048142;28;20420;-40
2021/10/19 10:29:50;;;;;;;2.00;1.90;;;15.10;99.90;;;;;;5048088;28;20416;-41
2021/10/19 10:32:35;;;;;;;1.80;1.70;;;15.10;99.90;;;;;;5026093;28;20433;-41
2021/10/19 10:35:07;;;;;;;1.60;1.50;;;15.10;99.90;;;;;;5027980;28;20414;-40
2021/10/19 10:37:45;;;;;;;2.03;1.70;;;15.20;99.90;;;;;;5028133;28;20429;-41
2021/10/19 10:40:30;;;;;;;2.00;1.90;;;15.10;99.90;;;;;;5028425;28;20747;-40
2021/10/19 10:43:15;;;;;;;1.80;1.70;;;15.10;99.90;;;;;;5027191;28;20433;-40
2021/10/19 10:45:40;;;;;;;1.50;1.40;;;15.10;99.90;;;;;;5026708;28;20413;-41
2021/10/19 10:48:06;;;;;;;1.67;1.57;;;15.10;99.90;;;;;;5015388;28;20421;-41
2021/10/19 10:50:34;;;;;;;3.37;1.80;;;15.20;99.90;;;;;;5027690;28;20191;-43
2021/10/19 10:53:06;;;;;;;1.93;1.77;;;15.20;99.90;;;;;;5027606;28;20974;-40
2021/10/19 10:55:40;;;;;;;2.20;1.80;;;15.20;99.90;;;;;;5027880;28;20785;-45
2021/10/19 10:58:06;;;;;;;1.93;1.37;;;15.20;99.90;;;;;;5026514;28;20417;-40
2021/10/19 11:00:32;;;;;;;1.47;1.37;;;15.30;99.90;;;;;;5027712;28;20401;-47
2021/10/19 11:03:14;;;;;;;2.07;1.87;;;15.20;99.90;;;;;;5018978;28;20483;-42
2021/10/19 11:05:50;;;;;;;1.90;1.80;;;15.30;99.90;;;;;;5025964;28;20206;-40
2021/10/19 11:08:27;;;;;;;1.93;1.83;;;15.20;99.90;;;;;;5027840;28;20429;-40
2021/10/19 11:11:07;;;;;;;1.60;1.50;;;15.20;99.90;;;;;;5027664;28;20513;-43
2021/10/19 11:13:45;;;;;;;1.67;1.57;;;15.30;99.90;;;;;;5026599;28;20464;-41
2021/10/19 11:16:11;;;;;;;1.77;1.67;;;15.30;99.90;;;;;;5022873;28;20417;-40
2021/10/19 11:18:37;;;;;;;1.43;1.33;;;15.30;99.90;;;;;;5020831;28;20421;-41
2021/10/19 11:21:02;;;;;;;1.77;1.67;;;15.40;99.90;;;;;;5027533;28;20588;-40
2021/10/19 11:23:28;;;;;;;1.63;1.53;;;15.40;99.90;;;;;;5045265;28;20177;-40
2021/10/19 11:25:57;;;;;;;1.70;1.60;;;15.40;99.90;;;;;;5035444;28;20195;-40
2021/10/19 11:28:23;;;;;;;1.37;1.27;;;15.40;99.90;;;;;;5046437;28;20196;-43
2021/10/19 11:30:48;;;;;;;1.60;1.50;;;15.40;99.90;;;;;;5046976;28;20452;-40
2021/10/19 11:33:15;;;;;;;1.80;1.70;;;15.30;99.90;;;;;;5019495;28;20906;-40
2021/10/19 11:35:41;;;;;;;1.60;1.50;;;15.40;99.90;;;;;;5026886;28;20551;-40
2021/10/19 11:38:07;;;;;;;2.33;1.27;;;15.40;99.90;;;;;;5027329;28;20785;-40
2021/10/19 11:40:33;;;;;;;1.47;1.37;;;15.40;99.90;;;;;;5026700;28;20679;-44
2021/10/19 11:42:59;;;;;;;1.40;1.30;;;15.40;99.90;;;;;;5026506;28;20516;-41
2021/10/19 11:45:26;;;;;;;2.03;1.40;;;15.40;99.90;;;;;;5026990;28;20512;-41
2021/10/19 11:47:53;;;;;;;1.50;1.40;;;15.40;99.90;;;;;;5014697;28;20900;-40
2021/10/19 11:50:26;;;;;;;1.20;1.20;;;15.40;99.90;;;;;;5023987;28;20444;-42
2021/10/19 11:52:53;;;;;;;1.60;1.50;;;15.50;99.90;;;;;;5025603;28;21115;-40
2021/10/19 11:55:19;;;;;;;1.40;1.30;;;15.40;99.90;;;;;;5026550;28;20412;-40
2021/10/19 11:57:50;;;;;;;1.60;1.50;;;15.50;99.90;;;;;;5025579;28;20444;-41
2021/10/19 12:00:16;;;;;;;1.50;1.40;;;15.50;99.90;;;;;;5026203;28;20471;-40
2021/10/19 12:02:49;;;;;;;1.70;1.60;;;15.50;99.90;;;;;;5019857;28;21121;-40
2021/10/19 12:05:15;;;;;;;1.87;1.77;;;15.50;99.90;;;;;;5023235;28;20441;-42
2021/10/19 12:07:50;;;;;;;2.23;1.87;;;15.60;99.90;;;;;;5026695;28;20448;-40
2021/10/19 12:10:25;;;;;;;3.00;2.80;;;15.50;99.90;;;;;;5026177;28;20388;-40
2021/10/19 12:13:04;;;;;;;2.77;2.57;;;15.60;99.90;;;;;;5025874;28;20512;-40
2021/10/19 12:15:32;;;;;;;3.93;3.63;;;15.60;99.90;;;;;;5024908;28;20454;-40
2021/10/19 12:18:01;;;;;;;3.60;3.23;;;15.70;99.90;;;;;;5016082;28;20506;-41
2021/10/19 12:20:29;;;;;;;4.27;3.93;;;15.70;99.90;;;;;;5030311;28;20887;-40
2021/10/19 12:23:00;;;;;;;4.50;4.10;;;15.70;99.90;;;;;;5025587;28;20425;-41
2021/10/19 12:25:32;;;;;;;5.37;4.90;;;15.70;99.90;;;;;;5026369;28;20777;-41
2021/10/19 12:27:58;;;;;;;6.30;5.80;;;15.80;99.90;;;;;;5025922;28;20416;-40
2021/10/19 12:30:24;;;;;;;6.17;5.50;;;15.70;99.90;;;;;;5026128;28;20417;-40
2021/10/19 12:32:52;;;;;;;6.50;5.90;;;15.70;99.90;;;;;;5017775;28;20498;-43
2021/10/19 12:35:18;;;;;;;7.13;6.53;;;15.70;99.90;;;;;;5026339;28;20491;-40
2021/10/19 12:37:44;;;;;;;6.83;6.23;;;15.80;99.90;;;;;;5025552;28;20476;-40